createdAt,value
2019-01-13T00:00:52.306Z,4.66
2019-01-13T00:02:56.477Z,4.59
2019-01-13T00:03:56.710Z,4.69
2019-01-13T00:05:49.786Z,4.63
2019-01-13T00:06:50.016Z,4.60
2019-01-13T00:08:54.180Z,4.60
2019-01-13T00:09:54.413Z,4.60
2019-01-13T00:11:58.555Z,4.60
2019-01-13T00:12:58.789Z,4.58
2019-01-13T00:15:02.952Z,4.65
2019-01-13T00:16:03.186Z,4.63
2019-01-13T00:18:07.348Z,4.60
2019-01-13T00:19:07.582Z,4.66
2019-01-13T00:21:11.721Z,4.67
2019-01-13T00:22:11.953Z,4.52
2019-01-13T00:24:16.115Z,4.59
2019-01-13T00:25:16.350Z,4.54
2019-01-13T00:27:20.489Z,4.54
2019-01-13T00:28:20.725Z,4.54
2019-01-13T00:30:24.888Z,4.62
2019-01-13T00:31:25.119Z,4.60
2019-01-13T00:33:29.292Z,4.58
2019-01-13T00:34:29.528Z,4.62
2019-01-13T00:36:33.666Z,4.65
2019-01-13T00:37:33.899Z,4.62
2019-01-13T00:39:38.064Z,4.62
2019-01-13T00:40:38.297Z,4.62
2019-01-13T00:42:42.446Z,4.63
2019-01-13T00:43:42.680Z,4.75
2019-01-13T00:45:35.769Z,4.69
2019-01-13T00:46:36.003Z,4.66
2019-01-13T00:48:40.145Z,4.77
2019-01-13T00:49:40.379Z,4.75
2019-01-13T00:51:44.541Z,4.75
2019-01-13T00:52:44.774Z,4.78
2019-01-13T00:54:48.943Z,4.72
2019-01-13T00:55:49.174Z,4.77
2019-01-13T00:57:53.316Z,4.69
2019-01-13T00:58:53.550Z,4.70
2019-01-13T01:00:57.713Z,4.78
2019-01-13T01:01:57.944Z,4.73
2019-01-13T01:04:02.090Z,4.84
2019-01-13T01:05:02.318Z,4.70
2019-01-13T01:07:06.481Z,4.86
2019-01-13T01:08:06.715Z,4.89
2019-01-13T01:10:10.878Z,4.88
2019-01-13T01:11:11.111Z,4.84
2019-01-13T01:13:15.251Z,4.86
2019-01-13T01:14:15.485Z,4.88
2019-01-13T01:16:08.573Z,4.84
2019-01-13T01:17:08.808Z,4.85
2019-01-13T01:19:12.951Z,4.94
2019-01-13T01:20:13.186Z,4.91
2019-01-13T01:22:17.351Z,4.88
2019-01-13T01:23:17.585Z,4.88
2019-01-13T01:25:21.747Z,4.91
2019-01-13T01:26:21.980Z,4.94
2019-01-13T01:28:26.121Z,4.84
2019-01-13T01:29:26.356Z,4.84
2019-01-13T01:31:30.517Z,4.91
2019-01-13T01:32:30.750Z,4.88
2019-01-13T01:34:34.898Z,4.97
2019-01-13T01:35:35.129Z,4.97
2019-01-13T01:37:39.295Z,5.07
2019-01-13T01:38:39.531Z,5.04
2019-01-13T01:40:43.696Z,5.00
2019-01-13T01:41:43.931Z,4.99
2019-01-13T01:43:48.072Z,4.99
2019-01-13T01:44:48.303Z,4.89
2019-01-13T01:46:52.468Z,4.88
2019-01-13T01:47:52.703Z,4.94
2019-01-13T01:49:56.848Z,4.88
2019-01-13T01:50:57.082Z,4.94
2019-01-13T01:53:02.057Z,4.89
2019-01-13T01:54:01.484Z,4.92
2019-01-13T01:55:54.582Z,5.02
2019-01-13T01:56:54.818Z,5.04
2019-01-13T01:58:58.966Z,4.97
2019-01-13T01:59:59.190Z,4.92
2019-01-13T02:02:03.354Z,5.03
2019-01-13T02:03:03.588Z,5.07
2019-01-13T02:05:07.738Z,5.03
2019-01-13T02:06:07.961Z,5.09
2019-01-13T02:08:12.131Z,5.03
2019-01-13T02:09:12.364Z,5.02
2019-01-13T02:11:16.527Z,5.02
2019-01-13T02:12:16.761Z,5.00
2019-01-13T02:14:20.901Z,5.02
2019-01-13T02:15:21.134Z,4.92
2019-01-13T02:17:25.299Z,5.02
2019-01-13T02:18:25.532Z,4.89
2019-01-13T02:20:29.675Z,5.03
2019-01-13T02:21:29.906Z,4.99
2019-01-13T02:23:34.072Z,5.04
2019-01-13T02:24:34.304Z,5.09
2019-01-13T02:26:38.469Z,4.97
2019-01-13T02:27:38.703Z,5.09
2019-01-13T02:29:42.844Z,5.00
2019-01-13T02:30:49.044Z,4.94
2019-01-13T02:32:47.240Z,5.00
2019-01-13T02:33:47.475Z,5.03
2019-01-13T02:35:40.547Z,5.03
2019-01-13T02:36:40.777Z,4.97
2019-01-13T02:38:44.950Z,5.00
2019-01-13T02:39:45.184Z,5.00
2019-01-13T02:41:49.611Z,5.06
2019-01-13T02:42:49.620Z,4.99
2019-01-13T02:44:53.760Z,4.97
2019-01-13T02:45:53.994Z,4.94
2019-01-13T02:47:58.163Z,4.96
2019-01-13T02:48:58.395Z,4.94
2019-01-13T02:51:02.536Z,5.03
2019-01-13T02:52:02.771Z,4.99
2019-01-13T02:54:06.935Z,4.99
2019-01-13T02:55:07.169Z,4.92
2019-01-13T02:57:11.312Z,5.09
2019-01-13T02:58:11.544Z,4.99
2019-01-13T03:00:15.709Z,4.97
2019-01-13T03:01:15.941Z,4.97
2019-01-13T03:03:20.102Z,4.94
2019-01-13T03:04:20.339Z,4.92
2019-01-13T03:06:24.487Z,4.92
2019-01-13T03:07:24.724Z,4.91
2019-01-13T03:09:28.886Z,4.97
2019-01-13T03:10:29.119Z,4.96
2019-01-13T03:12:33.271Z,4.91
2019-01-13T03:13:33.503Z,4.89
2019-01-13T03:15:26.595Z,4.88
2019-01-13T03:16:26.827Z,4.80
2019-01-13T03:18:30.991Z,4.88
2019-01-13T03:19:31.225Z,4.80
2019-01-13T03:21:35.359Z,4.85
2019-01-13T03:22:35.591Z,4.73
2019-01-13T03:24:39.755Z,4.66
2019-01-13T03:25:39.988Z,4.69
2019-01-13T03:27:44.136Z,4.70
2019-01-13T03:28:44.370Z,4.77
2019-01-13T03:30:48.535Z,4.75
2019-01-13T03:31:48.767Z,4.80
2019-01-13T03:33:52.932Z,4.78
2019-01-13T03:34:53.166Z,4.75
2019-01-13T03:36:57.310Z,4.84
2019-01-13T03:37:57.549Z,4.85
2019-01-13T03:40:01.708Z,4.86
2019-01-13T03:41:01.943Z,4.85
2019-01-13T03:43:06.086Z,4.92
2019-01-13T03:44:06.320Z,4.97
2019-01-13T03:45:59.419Z,4.97
2019-01-13T03:46:59.652Z,4.92
2019-01-13T03:49:03.817Z,4.96
2019-01-13T03:50:04.052Z,5.00
2019-01-13T03:52:08.192Z,5.03
2019-01-13T03:53:08.429Z,4.94
2019-01-13T03:55:12.594Z,4.96
2019-01-13T03:56:12.827Z,4.96
2019-01-13T03:58:16.974Z,4.94
2019-01-13T03:59:17.207Z,4.88
2019-01-13T04:01:21.374Z,4.85
2019-01-13T04:02:21.609Z,4.86
2019-01-13T04:04:25.774Z,4.89
2019-01-13T04:05:26.006Z,4.85
2019-01-13T04:07:30.158Z,4.85
2019-01-13T04:08:30.394Z,4.85
2019-01-13T04:10:34.559Z,4.84
2019-01-13T04:11:34.795Z,4.85
2019-01-13T04:13:38.935Z,4.80
2019-01-13T04:14:39.169Z,4.85
2019-01-13T04:16:43.335Z,4.88
2019-01-13T04:17:43.568Z,4.91
2019-01-13T04:19:47.731Z,4.89
2019-01-13T04:20:47.967Z,4.88
2019-01-13T04:22:52.107Z,4.86
2019-01-13T04:23:52.343Z,4.85
2019-01-13T04:25:45.436Z,4.89
2019-01-13T04:26:45.669Z,4.88
2019-01-13T04:28:49.819Z,4.86
2019-01-13T04:29:50.053Z,4.86
2019-01-13T04:31:54.223Z,4.85
2019-01-13T04:32:54.461Z,4.91
2019-01-13T04:34:58.631Z,4.86
2019-01-13T04:35:58.867Z,4.85
2019-01-13T04:38:03.010Z,4.91
2019-01-13T04:39:03.238Z,4.85
2019-01-13T04:41:07.404Z,4.89
2019-01-13T04:42:07.636Z,4.99
2019-01-13T04:44:11.784Z,4.94
2019-01-13T04:45:12.022Z,4.97
2019-01-13T04:47:16.183Z,5.00
2019-01-13T04:48:16.418Z,4.99
2019-01-13T04:50:20.595Z,5.06
2019-01-13T04:51:20.821Z,4.99
2019-01-13T04:53:24.969Z,5.09
2019-01-13T04:54:25.203Z,5.09
2019-01-13T04:56:29.367Z,5.07
2019-01-13T04:57:29.601Z,5.07
2019-01-13T04:59:33.743Z,5.21
2019-01-13T05:00:33.977Z,5.10
2019-01-13T05:02:38.142Z,5.09
2019-01-13T05:03:38.383Z,5.17
2019-01-13T05:05:31.470Z,5.21
2019-01-13T05:06:31.717Z,5.24
2019-01-13T05:08:35.852Z,5.27
2019-01-13T05:09:36.085Z,5.31
2019-01-13T05:11:40.253Z,5.27
2019-01-13T05:12:40.486Z,5.28
2019-01-13T05:14:44.632Z,5.30
2019-01-13T05:15:44.871Z,5.35
2019-01-13T05:17:49.033Z,5.33
2019-01-13T05:18:49.267Z,5.35
2019-01-13T05:20:53.438Z,5.36
2019-01-13T05:21:53.673Z,5.45
2019-01-13T05:23:57.822Z,5.46
2019-01-13T05:24:58.056Z,5.43
2019-01-13T05:27:02.221Z,5.46
2019-01-13T05:28:02.456Z,5.43
2019-01-13T05:30:06.598Z,5.49
2019-01-13T05:31:06.836Z,5.45
2019-01-13T05:33:10.997Z,5.48
2019-01-13T05:34:11.232Z,5.56
2019-01-13T05:36:04.325Z,5.46
2019-01-13T05:37:04.561Z,5.51
2019-01-13T05:39:08.706Z,5.40
2019-01-13T05:40:08.940Z,5.48
2019-01-13T05:42:13.106Z,5.49
2019-01-13T05:43:13.340Z,5.36
2019-01-13T05:45:17.487Z,5.58
2019-01-13T05:46:17.725Z,5.48
2019-01-13T05:48:21.908Z,5.49
2019-01-13T05:49:22.141Z,5.51
2019-01-13T05:51:26.316Z,5.56
2019-01-13T05:52:26.559Z,5.61
2019-01-13T05:54:30.696Z,5.65
2019-01-13T05:55:30.932Z,5.74
2019-01-13T05:57:35.098Z,5.74
2019-01-13T05:58:35.330Z,5.68
2019-01-13T06:00:39.484Z,5.75
2019-01-13T06:01:39.714Z,5.71
2019-01-13T06:03:43.886Z,5.71
2019-01-13T06:04:44.118Z,5.74
2019-01-13T06:06:48.288Z,5.72
2019-01-13T06:07:48.521Z,5.75
2019-01-13T06:09:52.667Z,5.79
2019-01-13T06:10:52.899Z,5.71
2019-01-13T06:12:57.064Z,5.68
2019-01-13T06:13:57.298Z,5.74
2019-01-13T06:15:50.371Z,5.79
2019-01-13T06:16:50.604Z,5.72
2019-01-13T06:18:54.773Z,5.85
2019-01-13T06:19:55.010Z,5.81
2019-01-13T06:21:59.177Z,5.83
2019-01-13T06:22:59.408Z,5.83
2019-01-13T06:25:03.552Z,5.83
2019-01-13T06:26:03.787Z,5.86
2019-01-13T06:28:07.958Z,5.86
2019-01-13T06:29:08.193Z,5.79
2019-01-13T06:31:12.338Z,5.78
2019-01-13T06:32:12.571Z,5.91
2019-01-13T06:34:16.744Z,5.76
2019-01-13T06:35:16.981Z,5.83
2019-01-13T06:37:22.154Z,5.83
2019-01-13T06:38:22.387Z,5.83
2019-01-13T06:40:26.535Z,5.76
2019-01-13T06:41:26.770Z,5.81
2019-01-13T06:43:30.937Z,5.83
2019-01-13T06:44:31.171Z,5.81
2019-01-13T06:46:35.314Z,5.79
2019-01-13T06:47:35.549Z,5.79
2019-01-13T06:49:39.711Z,5.76
2019-01-13T06:50:40.026Z,5.85
2019-01-13T06:52:44.178Z,5.91
2019-01-13T06:53:44.407Z,5.83
2019-01-13T06:55:37.484Z,5.91
2019-01-13T06:56:37.720Z,5.90
2019-01-13T06:58:41.885Z,5.96
2019-01-13T06:59:42.120Z,5.91
2019-01-13T07:01:46.260Z,5.91
2019-01-13T07:02:46.494Z,5.97
2019-01-13T07:04:50.663Z,6.01
2019-01-13T07:05:50.901Z,6.01
2019-01-13T07:07:55.064Z,6.03
2019-01-13T07:08:55.301Z,5.96
2019-01-13T07:10:59.444Z,5.99
2019-01-13T07:11:59.679Z,5.89
2019-01-13T07:14:03.844Z,5.96
2019-01-13T07:15:04.076Z,5.94
2019-01-13T07:17:08.215Z,6.11
2019-01-13T07:18:08.454Z,5.97
2019-01-13T07:20:12.620Z,6.04
2019-01-13T07:21:12.854Z,6.04
2019-01-13T07:23:17.022Z,6.00
2019-01-13T07:24:17.257Z,6.12
2019-01-13T07:26:10.328Z,6.09
2019-01-13T07:27:10.566Z,6.01
2019-01-13T07:29:14.732Z,6.18
2019-01-13T07:30:14.967Z,6.18
2019-01-13T07:32:19.112Z,6.30
2019-01-13T07:33:19.350Z,6.15
2019-01-13T07:35:23.522Z,6.03
2019-01-13T07:36:23.754Z,6.28
2019-01-13T07:38:27.914Z,6.18
2019-01-13T07:39:28.155Z,6.14
2019-01-13T07:41:32.297Z,6.14
2019-01-13T07:42:32.532Z,6.18
2019-01-13T07:44:37.712Z,6.27
2019-01-13T07:45:37.950Z,6.19
2019-01-13T07:47:42.102Z,6.19
2019-01-13T07:48:42.334Z,6.06
2019-01-13T07:50:46.501Z,6.15
2019-01-13T07:51:46.736Z,6.18
2019-01-13T07:53:50.902Z,6.03
2019-01-13T07:54:51.612Z,6.22
2019-01-13T07:56:55.279Z,6.18
2019-01-13T07:57:55.513Z,6.18
2019-01-13T07:59:59.675Z,6.19
2019-01-13T08:00:59.909Z,6.14
2019-01-13T08:03:04.057Z,6.18
2019-01-13T08:04:04.289Z,6.12
2019-01-13T08:05:57.394Z,6.22
2019-01-13T08:06:57.630Z,6.21
2019-01-13T08:09:01.795Z,6.14
2019-01-13T08:10:02.029Z,6.18
2019-01-13T08:12:06.170Z,6.17
2019-01-13T08:13:06.404Z,6.17
2019-01-13T08:15:10.568Z,6.17
2019-01-13T08:16:10.802Z,6.19
2019-01-13T08:18:14.946Z,6.22
2019-01-13T08:19:15.177Z,6.27
2019-01-13T08:21:19.338Z,6.25
2019-01-13T08:22:19.572Z,6.14
2019-01-13T08:24:23.734Z,6.15
2019-01-13T08:25:23.968Z,6.18
2019-01-13T08:27:28.111Z,6.14
2019-01-13T08:28:28.345Z,6.18
2019-01-13T08:30:32.507Z,6.15
2019-01-13T08:31:32.740Z,6.17
2019-01-13T08:33:36.882Z,6.15
2019-01-13T08:34:37.117Z,6.27
2019-01-13T08:36:41.280Z,6.33
2019-01-13T08:37:41.516Z,6.31
2019-01-13T08:39:45.679Z,6.17
2019-01-13T08:40:45.916Z,6.33
2019-01-13T08:42:50.057Z,6.33
2019-01-13T08:43:50.289Z,6.22
2019-01-13T08:45:50.077Z,6.25
2019-01-13T08:46:43.628Z,6.18
2019-01-13T08:48:47.763Z,6.28
2019-01-13T08:49:47.999Z,6.19
2019-01-13T08:51:52.163Z,6.27
2019-01-13T08:52:52.389Z,6.25
2019-01-13T08:54:56.553Z,6.25
2019-01-13T08:55:56.790Z,6.36
2019-01-13T08:58:00.930Z,6.48
2019-01-13T08:59:01.165Z,6.44
2019-01-13T09:01:05.327Z,6.49
2019-01-13T09:02:05.564Z,6.46
2019-01-13T09:04:09.702Z,6.49
2019-01-13T09:05:09.937Z,6.48
2019-01-13T09:07:14.096Z,6.44
2019-01-13T09:08:14.335Z,6.43
2019-01-13T09:10:18.493Z,6.33
2019-01-13T09:11:18.726Z,6.46
2019-01-13T09:13:22.875Z,6.34
2019-01-13T09:14:23.114Z,6.34
2019-01-13T09:16:27.286Z,6.18
2019-01-13T09:17:27.521Z,6.37
2019-01-13T09:19:31.664Z,6.31
2019-01-13T09:20:31.899Z,6.33
2019-01-13T09:22:36.066Z,6.34
2019-01-13T09:23:36.304Z,6.31
2019-01-13T09:25:29.402Z,6.34
2019-01-13T09:26:29.636Z,6.44
2019-01-13T09:28:33.789Z,6.37
2019-01-13T09:29:34.026Z,6.36
2019-01-13T09:31:38.189Z,6.28
2019-01-13T09:32:39.675Z,6.33
2019-01-13T09:34:42.583Z,6.30
2019-01-13T09:35:42.867Z,6.38
2019-01-13T09:37:47.043Z,6.36
2019-01-13T09:38:47.280Z,6.34
2019-01-13T09:40:51.499Z,6.30
2019-01-13T09:41:51.696Z,6.31
2019-01-13T09:43:55.850Z,6.30
2019-01-13T09:44:56.081Z,6.25
2019-01-13T09:47:00.251Z,6.36
2019-01-13T09:48:00.491Z,6.21
2019-01-13T09:50:04.666Z,6.30
2019-01-13T09:51:04.899Z,6.31
2019-01-13T09:53:09.061Z,6.27
2019-01-13T09:54:09.297Z,6.30
2019-01-13T09:56:02.416Z,6.31
2019-01-13T09:57:02.645Z,6.33
2019-01-13T09:59:06.788Z,6.30
2019-01-13T10:00:07.023Z,6.25
2019-01-13T10:02:12.225Z,6.22
2019-01-13T10:03:12.457Z,6.28
2019-01-13T10:05:16.608Z,6.25
2019-01-13T10:06:17.078Z,6.25
2019-01-13T10:08:21.011Z,6.28
2019-01-13T10:09:21.249Z,6.34
2019-01-13T10:11:25.416Z,6.25
2019-01-13T10:12:25.651Z,6.33
2019-01-13T10:14:29.791Z,6.19
2019-01-13T10:15:30.026Z,6.31
2019-01-13T10:17:34.193Z,6.27
2019-01-13T10:18:34.424Z,6.30
2019-01-13T10:20:38.576Z,6.37
2019-01-13T10:21:38.811Z,6.37
2019-01-13T10:23:42.973Z,6.40
2019-01-13T10:24:43.207Z,6.46
2019-01-13T10:26:47.372Z,6.38
2019-01-13T10:27:47.603Z,6.40
2019-01-13T10:29:51.745Z,6.36
2019-01-13T10:30:51.978Z,6.46
2019-01-13T10:32:56.147Z,6.34
2019-01-13T10:33:56.381Z,6.37
2019-01-13T10:35:49.460Z,6.48
2019-01-13T10:36:49.693Z,6.48
2019-01-13T10:38:53.856Z,6.46
2019-01-13T10:39:54.094Z,6.46
2019-01-13T10:41:58.256Z,6.48
2019-01-13T10:42:58.500Z,6.46
2019-01-13T10:45:02.643Z,6.43
2019-01-13T10:46:02.876Z,6.41
2019-01-13T10:48:07.043Z,6.43
2019-01-13T10:49:07.281Z,6.37
2019-01-13T10:51:11.418Z,6.48
2019-01-13T10:52:11.653Z,6.44
2019-01-13T10:54:15.829Z,6.52
2019-01-13T10:55:16.061Z,6.55
2019-01-13T10:57:21.242Z,6.67
2019-01-13T10:58:21.477Z,6.58
2019-01-13T11:00:25.634Z,6.67
2019-01-13T11:01:25.857Z,6.70
2019-01-13T11:03:30.027Z,6.70
2019-01-13T11:04:30.257Z,6.71
2019-01-13T11:06:34.411Z,6.67
2019-01-13T11:07:34.646Z,6.67
2019-01-13T11:09:38.817Z,6.66
2019-01-13T11:10:39.052Z,6.71
2019-01-13T11:12:44.253Z,6.88
2019-01-13T11:13:44.484Z,6.80
2019-01-13T11:15:38.575Z,6.84
2019-01-13T11:16:38.810Z,6.87
2019-01-13T11:18:42.977Z,6.84
2019-01-13T11:19:43.214Z,6.89
2019-01-13T11:21:47.361Z,6.87
2019-01-13T11:22:47.668Z,6.80
2019-01-13T11:24:52.776Z,6.79
2019-01-13T11:25:53.013Z,6.70
2019-01-13T11:27:57.182Z,6.84
2019-01-13T11:28:57.420Z,6.79
2019-01-13T11:31:01.576Z,6.70
2019-01-13T11:32:01.803Z,6.85
2019-01-13T11:34:05.971Z,6.87
2019-01-13T11:35:06.207Z,6.84
2019-01-13T11:37:10.361Z,6.89
2019-01-13T11:38:10.596Z,6.89
2019-01-13T11:40:14.770Z,6.92
2019-01-13T11:41:15.008Z,6.88
2019-01-13T11:43:19.185Z,6.92
2019-01-13T11:44:19.417Z,6.92
2019-01-13T11:46:23.568Z,6.85
2019-01-13T11:47:23.802Z,6.95
2019-01-13T11:49:27.972Z,7.02
2019-01-13T11:50:28.210Z,7.13
2019-01-13T11:52:33.366Z,7.17
2019-01-13T11:53:33.601Z,7.17
2019-01-13T11:55:26.842Z,7.17
2019-01-13T11:56:27.166Z,7.31
2019-01-13T11:58:32.395Z,7.30
2019-01-13T11:59:31.707Z,7.31
2019-01-13T12:01:35.981Z,7.27
2019-01-13T12:02:36.315Z,7.24
2019-01-13T12:04:40.481Z,7.42
2019-01-13T12:05:40.722Z,7.37
2019-01-13T12:07:44.912Z,7.34
2019-01-13T12:08:45.341Z,7.42
2019-01-13T12:10:49.385Z,7.42
2019-01-13T12:11:49.686Z,7.45
2019-01-13T12:13:53.864Z,7.46
2019-01-13T12:14:54.227Z,7.43
2019-01-13T12:16:58.407Z,7.46
2019-01-13T12:17:58.751Z,7.34
2019-01-13T12:20:02.946Z,7.42
2019-01-13T12:21:03.231Z,7.50
2019-01-13T12:23:07.496Z,7.53
2019-01-13T12:24:07.747Z,7.49
2019-01-13T12:26:00.870Z,7.58
2019-01-13T12:27:01.130Z,7.49
2019-01-13T12:29:05.729Z,7.52
2019-01-13T12:30:05.923Z,7.52
2019-01-13T12:32:10.097Z,7.68
2019-01-13T12:33:10.403Z,7.63
2019-01-13T12:35:14.801Z,7.64
2019-01-13T12:36:15.117Z,7.68
2019-01-13T12:38:19.272Z,7.61
2019-01-13T12:39:19.539Z,7.58
2019-01-13T12:41:23.707Z,7.58
2019-01-13T12:42:24.025Z,7.55
2019-01-13T12:44:28.432Z,7.63
2019-01-13T12:45:29.273Z,7.61
2019-01-13T12:47:33.700Z,7.71
2019-01-13T12:48:33.851Z,7.77
2019-01-13T12:50:38.060Z,7.64
2019-01-13T12:51:38.073Z,7.61
2019-01-13T12:53:42.858Z,7.80
2019-01-13T12:54:43.172Z,7.71
2019-01-13T12:56:49.119Z,7.68
2019-01-13T12:57:48.414Z,7.71
2019-01-13T12:59:52.297Z,7.71
2019-01-13T13:00:52.530Z,7.72
2019-01-13T13:02:57.637Z,7.80
2019-01-13T13:03:57.151Z,7.80
2019-01-13T13:05:50.309Z,7.74
2019-01-13T13:06:50.540Z,7.79
2019-01-13T13:08:54.692Z,7.79
2019-01-13T13:09:55.126Z,7.83
2019-01-13T13:11:59.233Z,7.92
2019-01-13T13:12:59.588Z,7.89
2019-01-13T13:15:03.749Z,7.90
2019-01-13T13:16:03.988Z,7.86
2019-01-13T13:18:08.155Z,7.85
2019-01-13T13:19:08.554Z,7.92
2019-01-13T13:21:12.911Z,7.98
2019-01-13T13:22:13.123Z,7.90
2019-01-13T13:24:17.326Z,7.89
2019-01-13T13:25:17.656Z,7.97
2019-01-13T13:27:23.033Z,7.90
2019-01-13T13:28:23.188Z,7.87
2019-01-13T13:30:27.399Z,7.87
2019-01-13T13:31:27.706Z,7.90
2019-01-13T13:33:38.550Z,7.93
2019-01-13T13:34:32.312Z,7.92
2019-01-13T13:36:36.605Z,7.98
2019-01-13T13:37:36.879Z,8.00
2019-01-13T13:39:41.034Z,8.01
2019-01-13T13:40:41.387Z,8.08
2019-01-13T13:42:45.740Z,8.00
2019-01-13T13:43:46.024Z,7.98
2019-01-13T13:45:39.065Z,8.07
2019-01-13T13:46:39.303Z,8.11
2019-01-13T13:48:43.553Z,8.08
2019-01-13T13:49:43.785Z,8.07
2019-01-13T13:51:47.967Z,8.07
2019-01-13T13:52:48.203Z,8.10
2019-01-13T13:54:52.624Z,8.05
2019-01-13T13:55:52.589Z,8.10
2019-01-13T13:57:56.928Z,8.11
2019-01-13T13:58:57.043Z,8.02
2019-01-13T14:01:01.219Z,8.10
2019-01-13T14:02:01.452Z,8.10
2019-01-13T14:04:05.600Z,8.08
2019-01-13T14:05:05.838Z,8.12
2019-01-13T14:07:10.004Z,8.11
2019-01-13T14:08:10.239Z,8.11
2019-01-13T14:10:14.382Z,8.25
2019-01-13T14:11:14.618Z,8.19
2019-01-13T14:13:18.780Z,8.11
2019-01-13T14:14:19.018Z,8.19
2019-01-13T14:16:12.110Z,8.08
2019-01-13T14:17:12.346Z,8.19
2019-01-13T14:19:16.490Z,8.20
2019-01-13T14:20:16.727Z,8.15
2019-01-13T14:22:20.899Z,8.25
2019-01-13T14:23:21.137Z,8.23
2019-01-13T14:25:25.280Z,8.20
2019-01-13T14:26:25.519Z,8.19
2019-01-13T14:28:29.820Z,8.22
2019-01-13T14:29:29.920Z,8.29
2019-01-13T14:31:34.091Z,8.33
2019-01-13T14:32:34.326Z,8.34
2019-01-13T14:34:38.468Z,8.30
2019-01-13T14:35:38.703Z,8.34
2019-01-13T14:37:42.866Z,8.33
2019-01-13T14:38:43.102Z,8.26
2019-01-13T14:40:47.248Z,8.25
2019-01-13T14:41:47.484Z,8.28
2019-01-13T14:43:51.646Z,8.26
2019-01-13T14:44:51.892Z,8.30
2019-01-13T14:46:56.046Z,8.29
2019-01-13T14:47:56.287Z,8.26
2019-01-13T14:50:00.424Z,8.23
2019-01-13T14:51:00.664Z,8.29
2019-01-13T14:53:04.833Z,8.28
2019-01-13T14:54:05.069Z,8.33
2019-01-13T14:55:58.140Z,8.30
2019-01-13T14:56:58.375Z,8.40
2019-01-13T14:59:02.539Z,8.37
2019-01-13T15:00:02.785Z,8.45
2019-01-13T15:02:06.945Z,8.37
2019-01-13T15:03:07.188Z,8.36
2019-01-13T15:05:11.331Z,8.28
2019-01-13T15:06:11.569Z,8.34
2019-01-13T15:08:15.733Z,8.26
2019-01-13T15:09:15.971Z,8.36
2019-01-13T15:11:20.112Z,8.29
2019-01-13T15:12:20.347Z,8.30
2019-01-13T15:14:24.517Z,8.23
2019-01-13T15:15:24.756Z,8.34
2019-01-13T15:17:28.925Z,8.25
2019-01-13T15:18:29.161Z,8.33
2019-01-13T15:20:33.307Z,8.29
2019-01-13T15:21:33.544Z,8.34
2019-01-13T15:23:37.724Z,8.26
2019-01-13T15:24:37.947Z,8.33
2019-01-13T15:26:42.094Z,8.38
2019-01-13T15:27:42.325Z,8.40
2019-01-13T15:29:46.501Z,8.43
2019-01-13T15:30:46.736Z,8.38
2019-01-13T15:33:02.188Z,8.44
2019-01-13T15:34:07.171Z,8.45
2019-01-13T15:35:55.500Z,8.47
2019-01-13T15:36:55.739Z,8.44
2019-01-13T15:38:59.905Z,8.40
2019-01-13T15:40:00.194Z,8.43
2019-01-13T15:42:04.293Z,8.52
2019-01-13T15:43:04.528Z,8.38
2019-01-13T15:45:08.694Z,8.50
2019-01-13T15:46:08.935Z,8.55
2019-01-13T15:48:13.108Z,8.58
2019-01-13T15:49:13.342Z,8.55
2019-01-13T15:51:17.484Z,8.43
2019-01-13T15:52:17.720Z,8.62
2019-01-13T15:54:21.892Z,8.55
2019-01-13T15:55:22.126Z,8.59
2019-01-13T15:57:26.279Z,8.62
2019-01-13T15:58:26.512Z,8.65
2019-01-13T16:00:30.717Z,8.52
2019-01-13T16:01:30.922Z,8.55
2019-01-13T16:03:35.089Z,8.53
2019-01-13T16:04:35.326Z,8.59
2019-01-13T16:06:39.471Z,8.58
2019-01-13T16:07:39.710Z,8.58
2019-01-13T16:09:43.873Z,8.58
2019-01-13T16:10:44.116Z,8.55
2019-01-13T16:12:48.265Z,8.63
2019-01-13T16:13:48.499Z,8.62
2019-01-13T16:15:41.597Z,8.63
2019-01-13T16:16:41.828Z,8.62
2019-01-13T16:18:46.004Z,8.70
2019-01-13T16:19:46.241Z,8.66
2019-01-13T16:21:50.390Z,8.58
2019-01-13T16:22:50.628Z,8.50
2019-01-13T16:24:54.797Z,8.66
2019-01-13T16:25:55.042Z,8.61
2019-01-13T16:27:59.194Z,8.70
2019-01-13T16:28:59.435Z,8.65
2019-01-13T16:31:03.602Z,8.68
2019-01-13T16:32:03.839Z,8.61
2019-01-13T16:34:08.008Z,8.62
2019-01-13T16:35:08.247Z,8.71
2019-01-13T16:37:12.397Z,8.65
2019-01-13T16:38:12.634Z,8.66
2019-01-13T16:40:16.809Z,8.76
2019-01-13T16:41:17.046Z,8.83
2019-01-13T16:43:21.190Z,8.74
2019-01-13T16:44:21.431Z,8.74
2019-01-13T16:46:25.602Z,8.74
2019-01-13T16:47:25.839Z,8.79
2019-01-13T16:49:30.009Z,8.77
2019-01-13T16:50:30.247Z,8.83
2019-01-13T16:52:34.399Z,8.81
2019-01-13T16:53:34.635Z,8.81
2019-01-13T16:55:27.737Z,8.74
2019-01-13T16:56:27.971Z,8.73
2019-01-13T16:58:32.122Z,8.68
2019-01-13T16:59:32.360Z,8.71
2019-01-13T17:01:36.535Z,8.74
2019-01-13T17:02:36.774Z,8.79
2019-01-13T17:04:40.944Z,8.76
2019-01-13T17:05:41.182Z,8.73
2019-01-13T17:07:45.338Z,8.79
2019-01-13T17:08:45.571Z,8.79
2019-01-13T17:10:49.750Z,8.94
2019-01-13T17:11:49.989Z,8.91
2019-01-13T17:13:54.142Z,8.83
2019-01-13T17:14:54.378Z,8.73
2019-01-13T17:16:58.556Z,8.73
2019-01-13T17:17:58.795Z,8.79
2019-01-13T17:20:02.973Z,8.84
2019-01-13T17:21:03.209Z,8.80
2019-01-13T17:23:07.361Z,8.77
2019-01-13T17:24:07.600Z,8.89
2019-01-13T17:26:00.705Z,8.77
2019-01-13T17:27:00.932Z,8.76
2019-01-13T17:29:05.091Z,8.77
2019-01-13T17:30:05.327Z,8.76
2019-01-13T17:32:09.499Z,8.80
2019-01-13T17:33:09.745Z,8.73
2019-01-13T17:35:13.900Z,8.70
2019-01-13T17:36:14.136Z,8.63
2019-01-13T17:38:18.294Z,8.63
2019-01-13T17:39:18.529Z,8.52
2019-01-13T17:41:22.698Z,8.71
2019-01-13T17:42:22.935Z,8.70
2019-01-13T17:44:27.085Z,8.63
2019-01-13T17:45:27.324Z,8.66
2019-01-13T17:47:31.499Z,8.62
2019-01-13T17:48:31.736Z,8.68
2019-01-13T17:50:35.911Z,8.61
2019-01-13T17:51:36.148Z,8.53
2019-01-13T17:53:40.302Z,8.47
2019-01-13T17:54:40.534Z,8.45
2019-01-13T17:56:44.708Z,8.55
2019-01-13T17:57:44.947Z,8.56
2019-01-13T17:59:49.093Z,8.47
2019-01-13T18:00:49.406Z,8.45
2019-01-13T18:02:53.631Z,8.50
2019-01-13T18:03:53.866Z,8.38
2019-01-13T18:05:46.967Z,8.30
2019-01-13T18:06:47.206Z,8.29
2019-01-13T18:08:51.357Z,8.28
2019-01-13T18:09:51.593Z,8.33
2019-01-13T18:11:55.766Z,8.40
2019-01-13T18:12:56.005Z,8.48
2019-01-13T18:15:00.178Z,8.45
2019-01-13T18:16:00.398Z,8.55
2019-01-13T18:18:04.622Z,8.56
2019-01-13T18:19:04.810Z,8.55
2019-01-13T18:21:09.129Z,8.48
2019-01-13T18:22:09.430Z,8.50
2019-01-13T18:24:13.637Z,8.47
2019-01-13T18:25:13.947Z,8.48
2019-01-13T18:27:18.173Z,8.59
2019-01-13T18:28:18.409Z,8.45
2019-01-13T18:30:22.580Z,8.41
2019-01-13T18:31:22.816Z,8.41
2019-01-13T18:33:26.988Z,8.29
2019-01-13T18:34:27.223Z,8.34
2019-01-13T18:36:31.401Z,8.34
2019-01-13T18:37:31.638Z,8.33
2019-01-13T18:39:35.788Z,8.38
2019-01-13T18:40:36.067Z,8.29
2019-01-13T18:42:40.197Z,8.19
2019-01-13T18:43:40.430Z,8.04
2019-01-13T18:45:33.513Z,8.15
2019-01-13T18:46:33.767Z,8.10
2019-01-13T18:48:37.919Z,8.07
2019-01-13T18:49:38.152Z,8.02
2019-01-13T18:51:42.303Z,7.95
2019-01-13T18:52:42.550Z,7.85
2019-01-13T18:54:46.725Z,7.87
2019-01-13T18:55:46.964Z,7.98
2019-01-13T18:57:51.160Z,8.00
2019-01-13T18:58:51.394Z,7.95
2019-01-13T19:00:55.555Z,7.98
2019-01-13T19:01:55.787Z,7.92
2019-01-13T19:03:59.954Z,8.01
2019-01-13T19:05:00.226Z,8.04
2019-01-13T19:07:04.334Z,7.95
2019-01-13T19:08:04.570Z,7.95
2019-01-13T19:10:08.743Z,7.87
2019-01-13T19:11:08.982Z,7.93
2019-01-13T19:13:13.151Z,8.04
2019-01-13T19:14:13.393Z,7.95
2019-01-13T19:16:06.472Z,8.10
2019-01-13T19:17:06.704Z,7.97
2019-01-13T19:19:10.872Z,8.00
2019-01-13T19:20:11.110Z,8.02
2019-01-13T19:22:15.264Z,7.95
2019-01-13T19:23:15.504Z,7.97
2019-01-13T19:25:19.689Z,7.93
2019-01-13T19:26:19.919Z,7.85
2019-01-13T19:28:24.090Z,7.80
2019-01-13T19:29:24.324Z,7.86
2019-01-13T19:31:28.480Z,7.74
2019-01-13T19:32:28.717Z,7.63
2019-01-13T19:34:32.893Z,7.48
2019-01-13T19:35:33.129Z,7.31
2019-01-13T19:37:37.303Z,6.95
2019-01-13T19:38:37.539Z,6.85
2019-01-13T19:40:41.699Z,6.67
2019-01-13T19:41:41.934Z,6.52
2019-01-13T19:43:47.122Z,6.51
2019-01-13T19:44:47.373Z,6.48
2019-01-13T19:46:51.506Z,6.52
2019-01-13T19:47:51.739Z,6.51
2019-01-13T19:49:55.914Z,6.48
2019-01-13T19:50:56.152Z,6.37
2019-01-13T19:53:00.559Z,6.49
2019-01-13T19:54:00.563Z,6.49
2019-01-13T19:55:53.639Z,6.66
2019-01-13T19:56:53.875Z,6.70
2019-01-13T19:58:58.048Z,6.84
2019-01-13T19:59:58.280Z,6.81
2019-01-13T20:02:02.437Z,6.92
2019-01-13T20:03:02.674Z,6.87
2019-01-13T20:05:11.747Z,6.88
2019-01-13T20:06:07.077Z,6.85
2019-01-13T20:08:11.253Z,6.87
2019-01-13T20:09:11.488Z,6.98
2019-01-13T20:11:15.633Z,7.06
2019-01-13T20:12:15.871Z,7.16
2019-01-13T20:14:20.056Z,7.09
2019-01-13T20:15:20.293Z,7.21
2019-01-13T20:17:24.445Z,7.10
2019-01-13T20:18:24.673Z,6.98
2019-01-13T20:20:28.850Z,6.98
2019-01-13T20:21:29.084Z,6.92